Terminal Aerodrome Forecast
Issued by NWS

Home | Current Version | Previous Version | Graphics & Text | Print | Product List | Glossary On
Versions: 1 2 3 4 5 6 7 8 9 10 11 12 13 14 15 16 17 18 19 20 21
565
FTUS43 KICT 230743 AAB
TAFHUT
TAF AMD
KHUT 230743Z 2308/2406 15017G22KT P6SM OVC013
     FM231500 15022G26KT P6SM OVC015
     FM231700 17025G35KT P6SM BKN025
     FM232000 17026G35KT P6SM SCT030 BKN200=

USA.gov is the U.S. government's official web portal to all federal, state and local government web resources and services.